createdAt,value
2019-04-19T00:01:14.106Z,49.34
2019-04-19T00:03:44.913Z,50.02
2019-04-19T00:06:29.443Z,50.31
2019-04-19T00:09:08.987Z,50.84
2019-04-19T00:11:35.973Z,51.01
2019-04-19T00:13:59.796Z,51.35
2019-04-19T00:16:29.936Z,51.51
2019-04-19T00:19:29.048Z,51.85
2019-04-19T00:21:59.733Z,52.00
2019-04-19T00:24:03.827Z,52.20
2019-04-19T00:26:33.986Z,52.52
2019-04-19T00:29:06.806Z,52.67
2019-04-19T00:31:46.854Z,52.98
2019-04-19T00:34:08.373Z,52.95
2019-04-19T00:36:38.483Z,53.11
2019-04-19T00:39:41.279Z,52.98
2019-04-19T00:42:22.236Z,53.04
2019-04-19T00:45:04.298Z,53.01
2019-04-19T00:47:33.202Z,53.28
2019-04-19T00:50:01.551Z,53.69
2019-04-19T00:52:38.328Z,54.37
2019-04-19T00:55:01.169Z,54.76
2019-04-19T00:57:31.265Z,55.81
2019-04-19T00:59:55.269Z,56.46
2019-04-19T01:02:26.367Z,56.77
2019-04-19T01:05:02.815Z,56.68
2019-04-19T01:07:33.174Z,56.88
2019-04-19T01:10:14.922Z,56.76
2019-04-19T01:12:47.870Z,56.82
2019-04-19T01:15:15.596Z,56.58
2019-04-19T01:17:53.942Z,56.48
2019-04-19T01:20:10.495Z,56.62
2019-04-19T01:22:39.866Z,56.97
2019-04-19T01:25:16.171Z,57.70
2019-04-19T01:27:42.331Z,58.22
2019-04-19T01:30:12.638Z,58.01
2019-04-19T01:32:49.716Z,57.91
2019-04-19T01:35:18.188Z,58.18
2019-04-19T01:37:49.434Z,58.38
2019-04-19T01:40:36.794Z,58.19
2019-04-19T01:43:07.761Z,58.14
2019-04-19T01:46:02.442Z,58.17
2019-04-19T01:48:43.184Z,58.48
2019-04-19T01:51:42.532Z,58.77
2019-04-19T01:54:29.655Z,59.37
2019-04-19T01:56:48.270Z,59.52
2019-04-19T01:59:16.023Z,59.59
2019-04-19T02:01:49.916Z,59.89
2019-04-19T02:04:24.336Z,59.98
2019-04-19T02:06:51.595Z,59.98
2019-04-19T02:09:31.321Z,60.15
2019-04-19T02:12:14.479Z,60.35
2019-04-19T02:14:42.909Z,60.38
2019-04-19T02:17:06.511Z,60.29
2019-04-19T02:19:35.595Z,60.56
2019-04-19T02:22:12.646Z,60.40
2019-04-19T02:24:44.041Z,60.45
2019-04-19T02:27:12.898Z,61.11
2019-04-19T02:29:49.848Z,61.55
2019-04-19T02:32:30.858Z,62.43
2019-04-19T02:37:41.846Z,63.24
2019-04-19T02:42:44.514Z,63.66
2019-04-19T02:45:17.314Z,63.84
2019-04-19T02:48:01.672Z,64.03
2019-04-19T02:50:27.934Z,64.90
2019-04-19T02:53:12.503Z,65.15
2019-04-19T03:00:59.885Z,65.77
2019-04-19T03:05:47.738Z,65.46
2019-04-19T03:08:00.076Z,65.31
2019-04-19T03:10:32.589Z,65.29
2019-04-19T03:13:20.153Z,65.33
2019-04-19T03:15:54.277Z,65.70
2019-04-19T03:18:32.480Z,66.13
2019-04-19T03:20:51.737Z,66.14
2019-04-19T03:23:22.264Z,66.05
2019-04-19T03:25:51.490Z,65.96
2019-04-19T03:28:21.534Z,66.12
2019-04-19T03:31:23.685Z,66.29
2019-04-19T03:33:46.246Z,66.20
2019-04-19T03:36:05.418Z,66.04
2019-04-19T03:38:40.413Z,66.07
2019-04-19T03:41:27.330Z,65.67
2019-04-19T03:43:51.847Z,65.69
2019-04-19T03:46:18.971Z,65.62
2019-04-19T03:48:51.798Z,65.93
2019-04-19T03:51:28.760Z,66.17
2019-04-19T03:54:00.610Z,66.13
2019-04-19T03:56:36.152Z,66.15
2019-04-19T03:58:45.948Z,66.34
2019-04-19T04:01:17.032Z,66.53
2019-04-19T04:03:49.742Z,66.43
2019-04-19T04:06:26.751Z,66.76
2019-04-19T04:09:00.417Z,67.22
2019-04-19T04:11:36.161Z,67.29
2019-04-19T04:14:29.896Z,67.20
2019-04-19T04:17:20.543Z,67.07
2019-04-19T04:19:50.863Z,67.07
2019-04-19T04:22:26.502Z,67.16
2019-04-19T04:25:01.729Z,67.03
2019-04-19T04:27:37.838Z,67.42
2019-04-19T04:30:08.158Z,67.79
2019-04-19T04:32:42.852Z,67.68
2019-04-19T04:35:21.041Z,67.58
2019-04-19T04:37:45.693Z,67.84
2019-04-19T04:40:06.342Z,67.67
2019-04-19T04:42:44.444Z,67.64
2019-04-19T04:45:30.220Z,67.53
2019-04-19T04:48:04.256Z,67.43
2019-04-19T04:50:57.811Z,67.69
2019-04-19T04:53:08.965Z,67.71
2019-04-19T04:55:50.725Z,67.88
2019-04-19T04:58:26.364Z,67.67
2019-04-19T05:00:56.247Z,67.23
2019-04-19T05:03:41.695Z,67.12
2019-04-19T05:06:11.751Z,66.86
2019-04-19T05:08:46.267Z,66.39
2019-04-19T05:11:17.708Z,66.43
2019-04-19T05:13:54.585Z,66.26
2019-04-19T05:16:26.561Z,66.39
2019-04-19T05:18:50.709Z,65.90
2019-04-19T05:21:26.182Z,65.55
2019-04-19T05:24:02.497Z,65.33
2019-04-19T05:26:38.959Z,64.54
2019-04-19T05:28:55.300Z,64.07
2019-04-19T05:31:22.707Z,63.77
2019-04-19T05:34:12.152Z,62.98
2019-04-19T05:36:45.029Z,62.79
2019-04-19T05:39:27.976Z,62.43
2019-04-19T05:42:04.066Z,61.64
2019-04-19T05:45:03.280Z,61.31
2019-04-19T05:47:18.411Z,61.07
2019-04-19T05:49:51.508Z,59.96
2019-04-19T05:52:24.313Z,59.39
2019-04-19T05:54:39.219Z,58.72
2019-04-19T05:57:31.896Z,57.83
2019-04-19T05:59:52.638Z,56.70
2019-04-19T06:02:25.511Z,55.51
2019-04-19T06:05:10.106Z,53.88
2019-04-19T06:07:35.736Z,52.57
2019-04-19T06:09:49.827Z,52.06
2019-04-19T06:12:25.113Z,50.68
2019-04-19T06:15:14.939Z,49.89
2019-04-19T06:18:00.694Z,49.80
2019-04-19T06:20:36.583Z,48.29
2019-04-19T06:23:14.853Z,48.27
2019-04-19T06:25:52.849Z,46.68
2019-04-19T06:28:28.582Z,42.59
2019-04-19T06:30:50.571Z,42.40
2019-04-19T06:33:22.235Z,41.81
2019-04-19T06:35:43.709Z,44.14
2019-04-19T06:38:05.475Z,41.75
2019-04-19T06:40:37.828Z,41.88
2019-04-19T06:43:15.184Z,41.07
2019-04-19T06:45:55.342Z,40.30
2019-04-19T06:48:16.236Z,40.19
2019-04-19T06:50:45.358Z,39.37
2019-04-19T06:53:14.606Z,39.52
2019-04-19T06:55:48.574Z,39.24
2019-04-19T06:58:23.794Z,38.86
2019-04-19T07:01:00.786Z,39.19
2019-04-19T07:03:21.510Z,38.91
2019-04-19T07:06:08.996Z,38.71
2019-04-19T07:09:05.805Z,38.24
2019-04-19T07:11:16.558Z,38.02
2019-04-19T07:13:38.405Z,37.97
2019-04-19T07:16:35.036Z,38.19
2019-04-19T07:18:42.419Z,37.86
2019-04-19T07:21:21.761Z,37.62
2019-04-19T07:23:54.622Z,37.89
2019-04-19T07:26:33.800Z,37.46
2019-04-19T07:28:41.879Z,37.20
2019-04-19T07:31:14.727Z,37.32
2019-04-19T07:34:00.577Z,37.03
2019-04-19T07:36:40.128Z,36.66
2019-04-19T07:39:08.789Z,36.55
2019-04-19T07:41:39.573Z,36.60
2019-04-19T07:44:43.682Z,36.23
2019-04-19T07:47:28.164Z,36.57
2019-04-19T07:49:57.260Z,35.82
2019-04-19T07:53:31.346Z,36.06
2019-04-19T07:56:07.611Z,36.11
2019-04-19T07:58:52.136Z,36.34
2019-04-19T08:01:22.508Z,36.12
2019-04-19T08:04:21.241Z,36.17
2019-04-19T08:07:48.899Z,36.31
2019-04-19T08:10:10.800Z,36.47
2019-04-19T08:13:35.480Z,35.77
2019-04-19T08:16:02.297Z,35.70
2019-04-19T08:28:20.644Z,35.55
2019-04-19T08:30:47.828Z,35.01
2019-04-19T08:33:12.626Z,35.25
2019-04-19T08:35:49.611Z,35.04
2019-04-19T08:38:27.037Z,34.70
2019-04-19T08:41:05.938Z,34.10
2019-04-19T08:43:41.529Z,34.50
2019-04-19T08:46:11.220Z,34.43
2019-04-19T08:49:02.929Z,34.05
2019-04-19T08:52:07.204Z,33.72
2019-04-19T08:54:53.611Z,34.10
2019-04-19T08:57:12.529Z,34.32
2019-04-19T08:59:59.392Z,33.60
2019-04-19T09:02:28.623Z,34.21
2019-04-19T09:05:00.453Z,34.34
2019-04-19T09:07:52.528Z,33.57
2019-04-19T09:10:27.599Z,32.98
2019-04-19T09:12:38.660Z,33.06
2019-04-19T09:15:09.656Z,32.78
2019-04-19T09:18:01.223Z,30.83
2019-04-19T09:20:28.124Z,26.09
2019-04-19T09:23:00.059Z,24.65
2019-04-19T09:25:48.770Z,23.96
2019-04-19T09:28:42.220Z,23.12
2019-04-19T09:30:58.232Z,21.39
2019-04-19T09:33:24.246Z,21.61
2019-04-19T09:35:58.909Z,21.11
2019-04-19T09:38:39.656Z,21.27
2019-04-19T09:41:03.032Z,20.93
2019-04-19T09:43:41.793Z,20.17
2019-04-19T09:46:02.011Z,20.64
2019-04-19T09:48:51.654Z,20.92
2019-04-19T09:51:25.601Z,20.95
2019-04-19T09:54:01.737Z,21.92
2019-04-19T09:56:29.152Z,21.38
2019-04-19T09:58:57.673Z,20.99
2019-04-19T10:01:21.174Z,21.35
2019-04-19T10:03:54.872Z,20.28
2019-04-19T10:06:20.830Z,20.56
2019-04-19T10:08:51.864Z,20.35
2019-04-19T10:11:23.282Z,20.99
2019-04-19T10:13:54.297Z,21.61
2019-04-19T10:16:30.207Z,21.26
2019-04-19T10:19:04.947Z,20.79
2019-04-19T10:21:39.283Z,21.40
2019-04-19T10:24:13.447Z,21.21
2019-04-19T10:26:58.921Z,21.06
2019-04-19T10:29:34.789Z,20.79
2019-04-19T10:32:10.663Z,19.83
2019-04-19T10:34:41.027Z,20.19
2019-04-19T10:37:11.659Z,20.16
2019-04-19T10:39:43.498Z,20.57
2019-04-19T10:42:15.315Z,21.41
2019-04-19T10:44:47.728Z,22.00
2019-04-19T10:47:19.020Z,21.55
2019-04-19T10:49:55.045Z,20.89
2019-04-19T10:52:25.908Z,21.68
2019-04-19T10:54:59.227Z,22.48
2019-04-19T10:57:29.920Z,22.43
2019-04-19T11:00:03.537Z,22.10
2019-04-19T11:02:34.576Z,22.08
2019-04-19T11:05:07.922Z,21.90
2019-04-19T11:07:40.296Z,21.81
2019-04-19T11:10:12.061Z,21.60
2019-04-19T11:12:42.998Z,21.75
2019-04-19T11:15:13.666Z,21.64
2019-04-19T11:17:43.812Z,21.87
2019-04-19T11:20:26.268Z,23.16
2019-04-19T11:22:47.974Z,24.05
2019-04-19T11:25:20.231Z,24.63
2019-04-19T11:27:52.829Z,24.49
2019-04-19T11:30:47.156Z,24.94
2019-04-19T11:33:23.260Z,25.22
2019-04-19T11:35:55.426Z,25.15
2019-04-19T11:38:26.993Z,24.92
2019-04-19T11:40:57.688Z,24.74
2019-04-19T11:43:27.664Z,24.05
2019-04-19T11:45:58.450Z,24.87
2019-04-19T11:48:30.365Z,25.08
2019-04-19T11:51:00.804Z,24.83
2019-04-19T11:53:34.839Z,24.95
2019-04-19T11:56:50.640Z,24.82
2019-04-19T11:59:37.531Z,25.24
2019-04-19T12:02:04.028Z,24.67
2019-04-19T12:04:34.359Z,24.58
2019-04-19T12:07:05.984Z,24.70
2019-04-19T12:09:37.041Z,24.99
2019-04-19T12:12:07.943Z,24.60
2019-04-19T12:14:38.158Z,24.64
2019-04-19T12:17:09.348Z,24.47
2019-04-19T12:19:48.260Z,24.32
2019-04-19T12:22:12.924Z,24.35
2019-04-19T12:24:43.017Z,24.24
2019-04-19T12:27:13.776Z,24.20
2019-04-19T12:29:48.034Z,24.30
2019-04-19T12:32:17.204Z,24.15
2019-04-19T12:34:47.342Z,23.74
2019-04-19T12:37:19.466Z,24.16
2019-04-19T12:39:50.759Z,24.14
2019-04-19T12:42:34.186Z,23.85
2019-04-19T12:45:06.011Z,23.67
2019-04-19T12:47:38.109Z,23.89
2019-04-19T12:50:11.264Z,23.88
2019-04-19T12:52:42.215Z,23.42
2019-04-19T12:55:12.502Z,24.03
2019-04-19T12:57:49.863Z,23.65
2019-04-19T13:00:21.710Z,23.85
2019-04-19T13:03:00.016Z,23.63
2019-04-19T13:05:39.454Z,23.57
2019-04-19T13:08:09.775Z,23.19
2019-04-19T13:10:40.755Z,23.33
2019-04-19T13:13:11.884Z,23.24
2019-04-19T13:15:42.715Z,23.09
2019-04-19T13:18:14.177Z,23.02
2019-04-19T13:20:44.226Z,23.00
2019-04-19T13:23:14.634Z,22.60
2019-04-19T13:25:44.967Z,22.78
2019-04-19T13:28:15.485Z,22.84
2019-04-19T13:30:51.598Z,22.98
2019-04-19T13:33:18.620Z,22.68
2019-04-19T13:35:49.359Z,22.50
2019-04-19T13:38:25.479Z,22.65
2019-04-19T13:41:11.292Z,22.69
2019-04-19T13:43:42.733Z,22.18
2019-04-19T13:46:12.944Z,22.21
2019-04-19T13:48:43.282Z,21.98
2019-04-19T13:51:14.319Z,22.17
2019-04-19T13:53:44.752Z,22.35
2019-04-19T13:56:15.395Z,22.01
2019-04-19T13:58:45.644Z,22.01
2019-04-19T14:01:18.505Z,22.40
2019-04-19T14:03:49.769Z,22.13
2019-04-19T14:06:20.694Z,22.46
2019-04-19T14:08:51.322Z,22.37
2019-04-19T14:11:21.441Z,22.57
2019-04-19T14:13:56.013Z,22.29
2019-04-19T14:16:23.854Z,22.00
2019-04-19T14:18:54.967Z,21.94
2019-04-19T14:21:26.660Z,21.81
2019-04-19T14:23:57.517Z,22.03
2019-04-19T14:26:37.018Z,21.99
2019-04-19T14:29:01.200Z,22.39
2019-04-19T14:31:32.474Z,22.57
2019-04-19T14:34:04.000Z,22.52
2019-04-19T14:36:34.201Z,22.51
2019-04-19T14:39:06.689Z,22.80
2019-04-19T14:41:37.973Z,22.79
2019-04-19T14:44:09.262Z,22.68
2019-04-19T14:46:40.901Z,22.78
2019-04-19T14:49:11.212Z,22.75
2019-04-19T14:51:42.858Z,22.70
2019-04-19T14:54:14.604Z,22.50
2019-04-19T14:56:45.703Z,22.29
2019-04-19T14:59:15.851Z,22.56
2019-04-19T15:01:57.167Z,22.10
2019-04-19T15:04:33.040Z,22.59
2019-04-19T15:07:03.749Z,22.62
2019-04-19T15:09:35.511Z,22.91
2019-04-19T15:12:06.947Z,23.08
2019-04-19T15:14:37.024Z,23.50
2019-04-19T15:17:07.251Z,23.24
2019-04-19T15:19:37.540Z,23.39
2019-04-19T15:22:08.404Z,23.34
2019-04-19T15:24:38.931Z,23.55
2019-04-19T15:27:10.358Z,23.62
2019-04-19T15:29:41.438Z,23.67
2019-04-19T15:32:12.493Z,23.65
2019-04-19T15:34:43.471Z,23.69
2019-04-19T15:37:13.840Z,23.55
2019-04-19T15:39:44.224Z,23.57
2019-04-19T15:42:14.585Z,22.82
2019-04-19T15:44:44.931Z,22.50
2019-04-19T15:47:16.800Z,23.03
2019-04-19T15:49:47.988Z,23.47
2019-04-19T15:52:18.250Z,23.06
2019-04-19T15:54:50.085Z,23.29
2019-04-19T15:57:20.613Z,23.56
2019-04-19T15:59:51.712Z,23.66
2019-04-19T16:02:44.379Z,23.81
2019-04-19T16:05:44.334Z,23.90
2019-04-19T16:08:34.481Z,23.50
2019-04-19T16:11:29.053Z,23.14
2019-04-19T16:13:59.786Z,23.47
2019-04-19T16:16:31.138Z,23.80
2019-04-19T16:19:02.450Z,23.92
2019-04-19T16:21:40.930Z,23.73
2019-04-19T16:24:05.055Z,23.37
2019-04-19T16:26:37.193Z,23.30
2019-04-19T16:29:07.676Z,23.35
2019-04-19T16:31:40.322Z,23.46
2019-04-19T16:34:13.254Z,23.75
2019-04-19T16:36:43.944Z,23.94
2019-04-19T16:39:14.956Z,23.75
2019-04-19T16:41:45.336Z,24.01
2019-04-19T16:44:15.691Z,24.12
2019-04-19T16:46:45.874Z,24.56
2019-04-19T16:49:16.272Z,24.41
2019-04-19T16:51:52.382Z,24.43
2019-04-19T16:54:18.484Z,24.69
2019-04-19T16:56:48.776Z,25.09
2019-04-19T16:59:19.692Z,25.07
2019-04-19T17:01:50.716Z,25.25
2019-04-19T17:04:24.415Z,25.40
2019-04-19T17:06:54.318Z,25.85
2019-04-19T17:09:24.776Z,25.89
2019-04-19T17:11:55.715Z,26.13
2019-04-19T17:14:27.264Z,26.99
2019-04-19T17:17:06.948Z,26.29
2019-04-19T17:19:44.672Z,26.57
2019-04-19T17:22:19.053Z,26.81
2019-04-19T17:24:47.151Z,26.82
2019-04-19T17:27:24.375Z,27.15
2019-04-19T17:29:50.245Z,27.17
2019-04-19T17:32:20.578Z,27.50
2019-04-19T17:34:52.058Z,27.67
2019-04-19T17:37:22.313Z,27.97
2019-04-19T17:39:52.975Z,28.34
2019-04-19T17:42:24.314Z,28.47
2019-04-19T17:44:55.619Z,28.59
2019-04-19T17:47:30.723Z,28.81
2019-04-19T17:49:58.403Z,28.75
2019-04-19T17:52:32.654Z,28.98
2019-04-19T17:55:10.608Z,29.04
2019-04-19T17:57:31.773Z,29.08
2019-04-19T18:00:02.316Z,29.15
2019-04-19T18:02:35.062Z,29.11
2019-04-19T18:05:06.294Z,29.29
2019-04-19T18:07:40.959Z,29.46
2019-04-19T18:10:13.485Z,29.61
2019-04-19T18:12:41.263Z,29.62
2019-04-19T18:15:11.869Z,29.72
2019-04-19T18:17:43.118Z,29.18
2019-04-19T18:20:16.463Z,29.20
2019-04-19T18:22:57.906Z,29.34
2019-04-19T18:25:18.071Z,29.05
2019-04-19T18:27:53.099Z,29.06
2019-04-19T18:30:22.164Z,29.21
2019-04-19T18:32:56.987Z,29.45
2019-04-19T18:35:30.845Z,29.64
2019-04-19T18:37:59.383Z,29.67
2019-04-19T18:40:29.539Z,29.89
2019-04-19T18:43:16.285Z,29.78
2019-04-19T18:45:35.910Z,30.07
2019-04-19T18:48:03.690Z,30.14
2019-04-19T18:50:39.166Z,30.38
2019-04-19T18:53:15.627Z,30.57
2019-04-19T18:55:43.224Z,30.65
2019-04-19T18:58:13.186Z,30.83
2019-04-19T19:00:45.986Z,31.14
2019-04-19T19:03:13.657Z,31.42
2019-04-19T19:05:48.215Z,31.61
2019-04-19T19:08:24.149Z,31.76
2019-04-19T19:10:50.614Z,31.97
2019-04-19T19:13:25.455Z,32.15
2019-04-19T19:15:54.621Z,32.26
2019-04-19T19:18:26.471Z,32.45
2019-04-19T19:21:00.193Z,33.26
2019-04-19T19:23:43.284Z,33.54
2019-04-19T19:26:11.004Z,33.81
2019-04-19T19:28:32.025Z,33.97
2019-04-19T19:31:02.914Z,33.92
2019-04-19T19:33:40.543Z,33.87
2019-04-19T19:36:05.183Z,33.70
2019-04-19T19:38:38.568Z,33.68
2019-04-19T19:41:26.622Z,33.78
2019-04-19T19:43:52.792Z,33.76
2019-04-19T19:46:32.806Z,33.69
2019-04-19T19:49:26.117Z,33.79
2019-04-19T19:51:28.295Z,33.81
2019-04-19T19:54:28.519Z,33.75
2019-04-19T19:56:43.549Z,33.85
2019-04-19T19:59:05.535Z,33.89
2019-04-19T20:01:34.258Z,33.89
2019-04-19T20:03:56.282Z,33.86
2019-04-19T20:06:29.799Z,33.87
2019-04-19T20:09:00.991Z,33.92
2019-04-19T20:11:35.236Z,33.92
2019-04-19T20:14:04.878Z,33.99
2019-04-19T20:16:36.589Z,34.17
2019-04-19T20:19:12.843Z,34.19
2019-04-19T20:21:39.259Z,34.26
2019-04-19T20:24:23.118Z,34.10
2019-04-19T20:26:53.681Z,33.74
2019-04-19T20:29:21.329Z,33.42
2019-04-19T20:31:45.980Z,33.29
2019-04-19T20:34:24.706Z,33.31
2019-04-19T20:36:49.236Z,33.34
2019-04-19T20:39:27.147Z,33.31
2019-04-19T20:41:54.440Z,33.52
2019-04-19T20:44:40.759Z,33.68
2019-04-19T20:46:55.917Z,33.88
2019-04-19T20:49:28.619Z,33.97
2019-04-19T20:52:09.564Z,33.90
2019-04-19T20:54:53.691Z,33.92
2019-04-19T20:57:39.423Z,33.75
2019-04-19T20:59:58.905Z,33.53
2019-04-19T21:06:24.139Z,33.54
2019-04-19T21:08:49.675Z,33.46
2019-04-19T21:11:19.370Z,33.42
2019-04-19T21:13:54.866Z,33.20
2019-04-19T21:16:20.996Z,33.31
2019-04-19T21:18:59.044Z,33.32
2019-04-19T21:21:24.330Z,33.28
2019-04-19T21:24:01.515Z,33.38
2019-04-19T21:26:31.358Z,33.26
2019-04-19T21:28:58.966Z,33.44
2019-04-19T21:31:37.322Z,33.29
2019-04-19T21:34:04.438Z,33.35
2019-04-19T21:36:39.063Z,33.35
2019-04-19T21:39:10.210Z,33.48
2019-04-19T21:41:39.917Z,33.22
2019-04-19T21:44:14.324Z,33.30
2019-04-19T21:46:41.985Z,33.38
2019-04-19T21:49:15.610Z,33.20
2019-04-19T21:51:44.136Z,33.40
2019-04-19T21:54:14.586Z,33.33
2019-04-19T21:56:49.090Z,33.21
2019-04-19T21:59:17.404Z,32.89
2019-04-19T22:01:51.034Z,32.57
2019-04-19T22:04:19.460Z,32.53
2019-04-19T22:06:57.801Z,32.34
2019-04-19T22:09:23.431Z,32.19
2019-04-19T22:11:52.749Z,32.19
2019-04-19T22:14:24.856Z,32.11
2019-04-19T22:16:54.710Z,32.21
2019-04-19T22:19:28.425Z,32.22
2019-04-19T22:21:56.738Z,32.45
2019-04-19T22:24:33.870Z,32.61
2019-04-19T22:27:00.578Z,33.00
2019-04-19T22:29:31.527Z,33.18
2019-04-19T22:32:07.312Z,33.29
2019-04-19T22:34:32.980Z,33.41
2019-04-19T22:37:04.826Z,33.23
2019-04-19T22:39:34.736Z,33.38
2019-04-19T22:42:04.649Z,33.13
2019-04-19T22:44:34.681Z,33.23
2019-04-19T22:47:05.818Z,33.29
2019-04-19T22:49:39.508Z,33.50
2019-04-19T22:52:09.002Z,33.33
2019-04-19T22:54:40.374Z,33.49
2019-04-19T22:57:16.088Z,33.61
2019-04-19T22:59:49.285Z,34.05
2019-04-19T23:02:24.866Z,34.05
2019-04-19T23:04:57.867Z,34.17
2019-04-19T23:07:27.036Z,34.53
2019-04-19T23:09:57.377Z,34.58
2019-04-19T23:12:27.930Z,34.69
2019-04-19T23:14:59.279Z,34.92
2019-04-19T23:17:36.586Z,34.92
2019-04-19T23:20:01.212Z,34.96
2019-04-19T23:22:37.820Z,34.90
2019-04-19T23:25:07.614Z,35.00
2019-04-19T23:27:43.916Z,34.82
2019-04-19T23:30:22.392Z,34.75
2019-04-19T23:32:52.335Z,34.69
2019-04-19T23:35:30.317Z,34.49
2019-04-19T23:37:55.565Z,34.56
2019-04-19T23:40:29.968Z,34.36
2019-04-19T23:42:58.428Z,34.29
2019-04-19T23:45:34.020Z,34.15
2019-04-19T23:48:00.478Z,34.21
2019-04-19T23:50:35.307Z,34.32
2019-04-19T23:53:04.179Z,34.34
2019-04-19T23:55:33.894Z,34.58
2019-04-19T23:58:03.767Z,34.39
